Time;durP1;ratioP1;P1;durP2;ratioP2;P2;SDS_P1;SDS_P2;PMS_P1;PMS_P2;Temp;Humidity;BMP_temperature;BMP_pressure;BME280_temperature;BME280_humidity;BME280_pressure;Samples;Min_cycle;Max_cycle;Signal;HPM_P1;HPM_P2
2023/06/23 00:02:16;;;;;;;10.95;7.68;;;;;;;15.17;92.33;101460.41;4972183;28;20038;-82
2023/06/23 00:04:41;;;;;;;8.90;6.80;;;;;;;15.15;92.24;101467.91;4970944;28;20039;-82
2023/06/23 00:07:07;;;;;;;10.52;7.72;;;;;;;15.10;92.34;101457.69;4972795;28;20164;-82
2023/06/23 00:09:32;;;;;;;9.30;6.47;;;;;;;15.11;91.72;101450.41;4972031;28;20023;-82
2023/06/23 00:11:58;;;;;;;6.65;5.90;;;;;;;15.09;91.40;101457.91;4957815;28;20034;-82
2023/06/23 00:14:26;;;;;;;8.07;6.25;;;;;;;15.07;91.25;101466.25;4972480;28;20038;-82
2023/06/23 00:16:51;;;;;;;6.82;5.90;;;;;;;15.07;90.75;101468.13;4972174;28;20505;-81
2023/06/23 00:19:17;;;;;;;9.20;6.07;;;;;;;15.08;90.74;101470.66;4980361;28;20034;-82
2023/06/23 00:21:44;;;;;;;8.50;5.70;;;;;;;15.07;90.33;101473.53;4972474;28;20091;-82
2023/06/23 00:24:11;;;;;;;7.72;5.57;;;;;;;15.02;90.23;101471.47;4974777;28;20023;-82
2023/06/23 00:26:37;;;;;;;8.30;5.55;;;;;;;15.01;90.17;101472.53;4975066;28;20066;-82
2023/06/23 00:29:05;;;;;;;5.80;5.18;;;;;;;15.05;89.57;101478.34;4955464;28;20039;-81
2023/06/23 00:31:30;;;;;;;5.88;4.85;;;;;;;15.05;89.16;101484.63;4972278;28;20042;-81
2023/06/23 00:33:56;;;;;;;6.50;5.28;;;;;;;15.07;88.73;101484.41;4983925;28;20047;-83
2023/06/23 00:36:21;;;;;;;5.38;4.88;;;;;;;15.11;88.74;101496.50;4965142;28;20096;-83
2023/06/23 00:38:47;;;;;;;5.65;4.72;;;;;;;15.13;88.44;101505.25;4971035;28;20038;-80
2023/06/23 00:41:12;;;;;;;6.70;5.07;;;;;;;15.12;88.47;101496.28;4971619;28;20038;-81
2023/06/23 00:43:42;;;;;;;5.75;4.88;;;;;;;15.14;88.92;101515.06;4972406;28;20035;-82
2023/06/23 00:46:14;;;;;;;6.30;5.07;;;;;;;15.18;88.96;101519.00;4972179;28;20441;-81
2023/06/23 00:48:39;;;;;;;8.50;5.30;;;;;;;15.20;88.53;101519.63;4971420;28;20027;-82
2023/06/23 00:51:05;;;;;;;8.10;5.50;;;;;;;15.16;89.00;101516.50;4951075;28;20030;-81
2023/06/23 00:53:30;;;;;;;7.32;5.72;;;;;;;15.18;89.55;101521.69;4956205;28;20023;-81
2023/06/23 00:55:56;;;;;;;7.40;6.05;;;;;;;15.17;89.81;101530.91;4956145;28;20035;-81
2023/06/23 00:58:21;;;;;;;7.57;6.47;;;;;;;15.12;90.76;101533.41;4983419;28;20520;-82
2023/06/23 01:00:47;;;;;;;7.57;6.20;;;;;;;15.13;90.84;101554.88;4971463;28;20035;-82
2023/06/23 01:03:13;;;;;;;8.77;7.10;;;;;;;15.11;91.13;101554.25;4935646;28;20027;-81
2023/06/23 01:05:39;;;;;;;9.60;6.82;;;;;;;15.12;90.87;101565.97;4978053;28;20095;-81
2023/06/23 01:08:08;;;;;;;7.75;6.75;;;;;;;15.14;91.18;101561.97;4942577;28;20053;-81
2023/06/23 01:10:39;;;;;;;8.65;7.32;;;;;;;15.13;91.66;101568.44;4966962;28;20039;-82
2023/06/23 01:13:27;;;;;;;9.18;7.53;;;;;;;15.19;91.72;101566.78;4972769;28;20176;-82
2023/06/23 01:16:23;;;;;;;9.93;6.97;;;;;;;15.21;91.51;101567.41;4961913;28;20027;-82
2023/06/23 01:19:24;;;;;;;9.02;6.90;;;;;;;15.22;91.29;101577.19;4969592;28;20037;-81
2023/06/23 01:22:08;;;;;;;9.75;7.03;;;;;;;15.23;91.60;101583.47;4952164;28;20109;-82
2023/06/23 01:24:55;;;;;;;9.75;7.95;;;;;;;15.22;91.64;101577.19;4969713;28;20433;-82
2023/06/23 01:27:41;;;;;;;11.90;8.15;;;;;;;15.26;91.90;101583.88;4996295;28;20080;-81
2023/06/23 01:30:11;;;;;;;10.90;7.97;;;;;;;15.23;91.99;101578.88;4969290;28;20486;-82
2023/06/23 01:32:47;;;;;;;8.77;7.88;;;;;;;15.23;92.04;101595.16;4952900;28;20062;-81
2023/06/23 01:35:18;;;;;;;8.32;7.43;;;;;;;15.24;92.36;101596.00;4954100;28;20027;-81
2023/06/23 01:37:44;;;;;;;9.68;8.50;;;;;;;15.25;92.57;101603.91;4979981;28;20116;-82
2023/06/23 01:40:13;;;;;;;10.73;7.85;;;;;;;15.27;92.23;101607.25;4960514;28;20017;-81
2023/06/23 01:42:45;;;;;;;12.18;8.82;;;;;;;15.25;92.17;101609.34;4940059;28;20035;-82
2023/06/23 01:45:10;;;;;;;10.65;8.68;;;;;;;15.26;92.34;101607.47;4934588;29;20055;-82
2023/06/23 01:47:38;;;;;;;11.38;8.90;;;;;;;15.24;92.51;101613.09;4950858;28;20030;-82
2023/06/23 01:50:04;;;;;;;10.23;8.18;;;;;;;15.24;92.93;101609.56;4972839;28;20034;-82
2023/06/23 01:52:30;;;;;;;10.48;8.15;;;;;;;15.21;92.43;101608.06;4959331;28;20039;-82
2023/06/23 01:54:56;;;;;;;9.88;8.02;;;;;;;15.21;92.81;101608.06;4953051;28;20034;-81
2023/06/23 01:57:21;;;;;;;10.32;8.75;;;;;;;15.19;92.69;101601.22;4953976;28;20054;-82
2023/06/23 01:59:47;;;;;;;9.45;8.55;;;;;;;15.23;92.42;101610.59;4953182;28;20042;-81
2023/06/23 02:02:13;;;;;;;10.43;8.57;;;;;;;15.21;92.49;101616.22;4951950;28;20487;-82
2023/06/23 02:04:39;;;;;;;10.13;8.57;;;;;;;15.22;92.33;101620.59;4936742;28;20061;-81
2023/06/23 02:07:04;;;;;;;10.88;8.60;;;;;;;15.23;92.14;101624.97;4963732;28;20024;-81
2023/06/23 02:09:30;;;;;;;9.55;8.43;;;;;;;15.22;92.39;101625.19;4960725;28;20043;-81
2023/06/23 02:11:56;;;;;;;10.02;8.32;;;;;;;15.20;92.54;101622.69;4954461;28;20023;-79
2023/06/23 02:14:21;;;;;;;10.65;9.38;;;;;;;15.17;92.62;101625.84;4974187;28;20034;-78
2023/06/23 02:16:47;;;;;;;11.10;8.95;;;;;;;15.20;92.45;101632.72;4968823;28;20027;-78
2023/06/23 02:19:13;;;;;;;11.55;8.98;;;;;;;15.17;92.45;101633.97;4937238;28;20019;-78
2023/06/23 02:21:38;;;;;;;11.18;8.80;;;;;;;15.18;92.62;101635.63;4951664;28;20486;-78
2023/06/23 02:24:06;;;;;;;11.30;8.35;;;;;;;15.14;92.65;101634.38;4951796;28;20037;-78
2023/06/23 02:26:32;;;;;;;11.13;9.32;;;;;;;15.09;93.01;101628.75;4972891;28;20031;-78
2023/06/23 02:28:58;;;;;;;11.77;9.32;;;;;;;15.06;93.36;101643.56;4967950;28;20066;-78
2023/06/23 02:31:24;;;;;;;10.60;8.90;;;;;;;15.05;93.36;101641.88;4970979;28;20498;-77
2023/06/23 02:33:50;;;;;;;12.45;9.68;;;;;;;15.03;93.45;101653.97;4952233;28;20083;-77
2023/06/23 02:36:18;;;;;;;11.27;9.05;;;;;;;15.03;93.50;101664.81;4957167;28;20068;-78
2023/06/23 02:38:44;;;;;;;12.45;10.05;;;;;;;15.00;93.47;101671.50;4958206;28;20056;-78
2023/06/23 02:41:09;;;;;;;11.35;9.35;;;;;;;15.01;93.96;101671.28;4953710;28;20023;-78
2023/06/23 02:43:43;;;;;;;11.73;9.68;;;;;;;14.94;93.85;101670.44;4954070;28;20031;-79
2023/06/23 02:46:09;;;;;;;13.75;10.18;;;;;;;14.92;94.04;101680.66;4972453;28;20023;-79
2023/06/23 02:48:37;;;;;;;12.30;9.32;;;;;;;14.93;93.94;101670.63;4937280;28;20481;-79
2023/06/23 02:51:02;;;;;;;12.30;9.60;;;;;;;14.96;93.67;101671.09;4943938;28;20134;-79
2023/06/23 02:53:31;;;;;;;12.20;10.48;;;;;;;14.96;93.57;101684.63;4936310;28;20478;-79
2023/06/23 02:56:01;;;;;;;12.93;10.45;;;;;;;14.92;93.76;101679.81;4950538;28;20038;-79
2023/06/23 02:58:27;;;;;;;15.00;10.50;;;;;;;14.88;94.00;101684.81;4939597;28;20091;-79
2023/06/23 03:00:52;;;;;;;14.45;10.95;;;;;;;14.89;94.02;101691.09;4935126;28;20027;-79
2023/06/23 03:03:18;;;;;;;12.75;10.65;;;;;;;14.87;94.20;101696.69;4951116;28;20077;-78
2023/06/23 03:05:43;;;;;;;12.35;10.35;;;;;;;14.87;94.11;101704.84;4969505;28;20027;-79
2023/06/23 03:08:09;;;;;;;13.05;10.75;;;;;;;14.88;94.02;101706.50;4966211;28;20072;-79
2023/06/23 03:10:34;;;;;;;14.73;11.00;;;;;;;14.89;93.84;101708.19;4966672;28;20157;-79
2023/06/23 03:13:00;;;;;;;15.00;10.68;;;;;;;14.90;93.78;101715.28;4974161;28;20027;-78
2023/06/23 03:15:25;;;;;;;13.55;10.85;;;;;;;14.89;93.88;101719.03;4968214;28;20120;-79
2023/06/23 03:17:52;;;;;;;12.77;10.50;;;;;;;14.89;93.76;101726.34;4950089;28;20030;-79
2023/06/23 03:20:29;;;;;;;15.35;10.93;;;;;;;14.91;93.48;101727.78;4969003;28;20031;-79
2023/06/23 03:22:59;;;;;;;14.25;11.02;;;;;;;14.91;93.45;101727.78;4958494;28;20543;-79
2023/06/23 03:25:28;;;;;;;12.65;10.63;;;;;;;14.89;93.56;101729.88;4940637;28;20046;-79
2023/06/23 03:27:59;;;;;;;14.43;11.43;;;;;;;14.91;93.24;101733.22;4968189;28;20486;-78
2023/06/23 03:30:25;;;;;;;13.82;11.63;;;;;;;14.89;93.20;101745.31;4965852;28;20038;-78
2023/06/23 03:32:57;;;;;;;15.20;12.18;;;;;;;14.90;93.65;101747.81;4950880;28;20026;-79
2023/06/23 03:35:25;;;;;;;14.30;11.43;;;;;;;14.90;93.63;101752.41;4968715;28;20126;-79
2023/06/23 03:37:56;;;;;;;16.20;13.23;;;;;;;14.89;93.69;101759.69;4962308;28;20435;-79
2023/06/23 03:40:24;;;;;;;13.93;12.07;;;;;;;14.91;93.78;101760.31;4950465;28;20106;-79
2023/06/23 03:42:59;;;;;;;14.70;12.35;;;;;;;14.96;93.48;101755.13;4952628;28;20475;-79
2023/06/23 03:45:25;;;;;;;14.38;12.13;;;;;;;14.96;93.66;101762.41;4942865;28;20556;-79
2023/06/23 03:47:54;;;;;;;14.60;12.10;;;;;;;15.00;93.18;101775.34;4951370;28;20035;-79
2023/06/23 03:50:20;;;;;;;13.73;12.20;;;;;;;15.01;93.34;101774.31;4956485;28;20027;-79
2023/06/23 03:52:45;;;;;;;13.77;12.25;;;;;;;15.05;92.91;101768.50;4979025;28;20094;-79
2023/06/23 03:55:12;;;;;;;13.88;12.07;;;;;;;15.07;92.65;101779.97;4935384;28;20031;-79
2023/06/23 03:57:38;;;;;;;14.48;12.25;;;;;;;15.07;92.90;101785.41;4969411;28;20061;-80
2023/06/23 04:00:04;;;;;;;15.18;12.70;;;;;;;15.03;92.83;101790.41;4934721;28;20031;-79
2023/06/23 04:02:30;;;;;;;14.23;12.50;;;;;;;15.06;92.71;101792.72;4947888;28;20077;-78
2023/06/23 04:04:57;;;;;;;18.85;14.23;;;;;;;14.99;92.73;101797.25;4972694;28;20440;-79
2023/06/23 04:07:29;;;;;;;14.95;13.23;;;;;;;15.00;92.82;101802.47;4993964;28;20027;-79
2023/06/23 04:09:55;;;;;;;16.73;12.73;;;;;;;15.05;92.72;101801.03;4968076;28;20065;-78
2023/06/23 04:12:20;;;;;;;16.00;13.57;;;;;;;15.05;92.55;101798.31;4952824;28;20115;-78
2023/06/23 04:14:48;;;;;;;16.73;13.85;;;;;;;15.03;92.71;101794.97;4950398;28;20066;-78
2023/06/23 04:17:13;;;;;;;18.08;13.60;;;;;;;15.02;93.02;101799.56;4942733;28;20031;-79
2023/06/23 04:19:39;;;;;;;15.52;13.48;;;;;;;15.04;93.07;101802.06;4978121;28;20367;-79
2023/06/23 04:22:05;;;;;;;18.60;14.25;;;;;;;15.02;93.17;101802.28;4956518;28;20114;-79
2023/06/23 04:24:31;;;;;;;18.27;14.02;;;;;;;15.00;93.08;101818.75;4950813;28;20530;-79
2023/06/23 04:26:56;;;;;;;17.77;14.68;;;;;;;14.97;93.31;101808.31;4936584;28;20034;-78
2023/06/23 04:29:23;;;;;;;17.88;14.85;;;;;;;14.96;93.15;101806.66;4935738;28;20042;-79
2023/06/23 04:31:49;;;;;;;18.30;15.00;;;;;;;14.96;93.49;101814.78;4934833;28;20409;-79
2023/06/23 04:34:14;;;;;;;18.52;14.88;;;;;;;14.97;93.55;101813.75;4951969;28;20492;-78
2023/06/23 04:36:43;;;;;;;18.58;15.57;;;;;;;14.98;93.34;101823.56;4969774;28;20038;-79
2023/06/23 04:39:16;;;;;;;18.25;15.63;;;;;;;15.06;93.30;101829.81;4959258;28;20050;-78
2023/06/23 04:41:41;;;;;;;18.67;15.27;;;;;;;15.11;93.07;101836.31;4954755;28;20031;-78
2023/06/23 04:44:07;;;;;;;18.95;15.82;;;;;;;15.17;92.41;101834.69;4938360;28;20509;-79
2023/06/23 04:46:33;;;;;;;21.75;15.70;;;;;;;15.30;91.59;101833.84;4933492;28;20092;-78
2023/06/23 04:49:08;;;;;;;19.35;16.42;;;;;;;15.35;92.06;101835.97;4940011;29;20031;-78
2023/06/23 04:51:35;;;;;;;20.38;14.27;;;;;;;15.52;91.99;101842.69;4961533;28;20031;-78
2023/06/23 04:54:03;;;;;;;19.92;15.43;;;;;;;15.73;90.86;101835.41;4966430;28;20386;-78
2023/06/23 04:56:32;;;;;;;16.67;14.88;;;;;;;16.20;88.92;101843.59;4958917;23;21112;-78
2023/06/23 04:58:57;;;;;;;17.75;14.65;;;;;;;16.58;86.77;101851.06;5012407;28;20578;-78
2023/06/23 05:01:23;;;;;;;16.15;14.45;;;;;;;17.20;84.63;101852.53;5014584;28;20477;-79
2023/06/23 05:03:48;;;;;;;17.58;15.38;;;;;;;17.60;80.96;101857.78;5031002;28;20025;-78
2023/06/23 05:06:18;;;;;;;16.90;14.38;;;;;;;17.66;81.44;101861.50;5030171;28;20443;-79
2023/06/23 05:08:45;;;;;;;18.05;14.98;;;;;;;17.73;80.54;101871.28;5014870;28;20443;-83
2023/06/23 05:11:10;;;;;;;19.42;15.30;;;;;;;17.83;80.01;101873.53;5032438;28;20061;-82
2023/06/23 05:13:36;;;;;;;17.58;15.25;;;;;;;17.97;79.71;101873.41;5016244;28;20039;-83
2023/06/23 05:16:04;;;;;;;16.30;14.57;;;;;;;18.30;79.55;101886.81;5032581;28;20029;-84
2023/06/23 05:18:30;;;;;;;19.48;15.50;;;;;;;18.46;77.00;101890.03;5034267;28;20028;-82
2023/06/23 05:20:56;;;;;;;18.10;15.00;;;;;;;18.82;77.00;101896.56;5033978;28;20524;-81
2023/06/23 05:23:21;;;;;;;19.17;15.32;;;;;;;18.71;76.16;101902.78;5028295;28;20029;-81
2023/06/23 05:25:47;;;;;;;19.15;16.25;;;;;;;18.35;76.81;101901.66;5024667;28;20094;-80
2023/06/23 05:28:12;;;;;;;17.90;15.30;;;;;;;17.88;78.68;101897.38;5030461;28;20029;-81
2023/06/23 05:30:37;;;;;;;16.75;14.90;;;;;;;18.40;77.55;101901.81;5051873;28;20021;-81
2023/06/23 05:33:03;;;;;;;16.63;13.77;;;;;;;19.17;75.15;101906.06;5012990;28;20045;-81
2023/06/23 05:35:29;;;;;;;18.50;15.65;;;;;;;19.15;73.75;101903.56;5025273;28;20029;-81
2023/06/23 05:37:55;;;;;;;18.35;16.27;;;;;;;19.12;73.98;101911.38;5032721;28;20029;-81
2023/06/23 05:40:20;;;;;;;18.50;15.23;;;;;;;19.78;71.97;101909.63;5034584;28;20021;-81
2023/06/23 05:42:46;;;;;;;18.17;16.23;;;;;;;20.20;69.53;101911.56;5048317;28;20033;-81
2023/06/23 05:45:11;;;;;;;19.73;15.98;;;;;;;20.55;69.85;101912.63;5024056;28;20357;-80
2023/06/23 05:47:57;;;;;;;18.10;15.68;;;;;;;21.04;69.62;101921.41;5025399;28;20029;-79
2023/06/23 05:50:27;;;;;;;21.35;16.13;;;;;;;21.74;67.23;101917.84;5049748;28;21161;-83
2023/06/23 05:53:13;;;;;;;18.33;15.15;;;;;;;22.33;63.34;101927.59;5038679;28;20021;-77
2023/06/23 05:55:50;;;;;;;16.27;14.55;;;;;;;22.12;63.31;101924.53;5040387;28;20033;-79
2023/06/23 05:58:15;;;;;;;18.70;15.90;;;;;;;21.52;63.68;101921.25;5017861;28;20112;-79
2023/06/23 06:00:43;;;;;;;17.45;15.65;;;;;;;21.62;66.56;101926.94;5031483;28;20055;-79
2023/06/23 06:03:11;;;;;;;21.08;16.20;;;;;;;21.65;64.03;101926.47;5024204;28;20472;-79
2023/06/23 06:05:36;;;;;;;16.83;15.02;;;;;;;21.76;65.21;101921.16;5013538;28;20264;-79
2023/06/23 06:08:02;;;;;;;18.70;16.00;;;;;;;22.07;66.68;101928.03;5016206;28;20586;-79
2023/06/23 06:10:27;;;;;;;17.63;15.73;;;;;;;22.65;63.79;101938.00;5017213;28;20029;-79
2023/06/23 06:12:52;;;;;;;18.83;16.02;;;;;;;23.10;62.04;101936.97;5029221;28;20291;-80
2023/06/23 06:15:18;;;;;;;18.67;16.05;;;;;;;22.52;61.11;101934.53;5014479;28;20021;-80
2023/06/23 06:17:43;;;;;;;17.52;15.63;;;;;;;23.02;58.28;101934.66;5044147;28;20118;-78
2023/06/23 06:20:09;;;;;;;19.42;15.27;;;;;;;23.76;57.81;101936.06;5012864;28;20032;-79
2023/06/23 06:22:36;;;;;;;19.15;15.15;;;;;;;24.37;58.04;101945.16;5029444;28;20045;-80
2023/06/23 06:25:03;;;;;;;15.38;13.80;;;;;;;24.80;56.71;101942.41;5014729;28;20037;-80
2023/06/23 06:27:29;;;;;;;15.15;13.45;;;;;;;25.66;52.87;101953.25;5017806;28;20041;-80
2023/06/23 06:29:54;;;;;;;16.55;13.48;;;;;;;25.43;52.51;101950.72;5029406;28;20028;-81
2023/06/23 06:32:20;;;;;;;15.82;14.23;;;;;;;24.13;55.35;101967.50;5013916;28;20021;-79
2023/06/23 06:34:45;;;;;;;16.50;13.43;;;;;;;23.93;56.00;101968.94;5047993;28;20029;-78
2023/06/23 06:37:11;;;;;;;19.73;15.13;;;;;;;23.72;56.56;101967.09;5050191;28;20385;-79
2023/06/23 06:39:37;;;;;;;17.33;13.88;;;;;;;24.87;55.35;101976.06;5046843;28;20507;-77
2023/06/23 06:42:02;;;;;;;15.13;12.65;;;;;;;25.47;54.01;101978.56;5029231;28;20033;-78
2023/06/23 06:44:30;;;;;;;15.60;13.43;;;;;;;26.17;51.38;101978.16;5043614;28;20068;-77
2023/06/23 06:46:56;;;;;;;19.05;14.10;;;;;;;26.73;51.43;101975.63;5015243;28;20033;-76
2023/06/23 06:49:23;;;;;;;15.85;13.27;;;;;;;26.34;49.92;101985.31;5015694;28;20087;-79
2023/06/23 06:51:48;;;;;;;15.25;13.73;;;;;;;25.82;53.75;101976.97;5027512;28;20112;-80
2023/06/23 06:54:15;;;;;;;17.77;13.00;;;;;;;26.29;53.74;101977.06;5019464;28;20024;-78
2023/06/23 06:56:41;;;;;;;14.77;12.95;;;;;;;26.73;49.64;101984.72;5047443;28;20578;-78
2023/06/23 06:59:06;;;;;;;14.82;12.90;;;;;;;27.02;47.36;101984.13;5030869;28;20025;-78
2023/06/23 07:01:32;;;;;;;12.90;11.55;;;;;;;27.17;50.27;101993.50;5049067;28;20029;-78
2023/06/23 07:03:57;;;;;;;14.18;12.68;;;;;;;26.71;52.40;102003.50;5031046;28;20543;-78
2023/06/23 07:06:22;;;;;;;13.75;12.35;;;;;;;27.08;47.93;102004.31;5030153;28;20056;-78
2023/06/23 07:08:48;;;;;;;13.35;11.73;;;;;;;27.49;47.96;102006.09;5013547;28;20125;-78
2023/06/23 07:11:13;;;;;;;13.32;11.93;;;;;;;27.22;50.89;102010.03;5049211;28;20735;-78
2023/06/23 07:13:39;;;;;;;14.23;12.73;;;;;;;26.89;48.26;101995.78;5048534;28;20024;-78
2023/06/23 07:16:05;;;;;;;13.25;11.85;;;;;;;26.67;49.03;102001.59;5049111;28;20051;-78
2023/06/23 07:18:30;;;;;;;14.38;12.85;;;;;;;26.12;49.60;102011.25;5047305;28;20052;-78
2023/06/23 07:20:56;;;;;;;14.07;12.43;;;;;;;26.87;49.41;102004.34;5040294;28;20245;-78
2023/06/23 07:23:22;;;;;;;12.88;11.40;;;;;;;27.42;50.06;102008.28;5048036;28;20495;-78
2023/06/23 07:25:47;;;;;;;12.00;10.18;;;;;;;28.35;45.51;102014.09;5050213;28;20080;-78
2023/06/23 07:28:13;;;;;;;14.45;11.18;;;;;;;28.14;45.35;102019.00;5039476;28;20017;-78
2023/06/23 07:30:39;;;;;;;12.05;10.73;;;;;;;27.97;47.25;102017.41;5047918;28;20025;-78
2023/06/23 07:33:05;;;;;;;11.82;10.65;;;;;;;29.19;44.03;102021.31;5040367;28;20025;-78
2023/06/23 07:35:30;;;;;;;12.65;11.00;;;;;;;28.72;45.56;102020.16;5048564;28;20028;-78
2023/06/23 07:37:56;;;;;;;11.50;10.32;;;;;;;29.80;44.26;102016.13;5048069;28;20329;-78
2023/06/23 07:40:21;;;;;;;12.95;10.70;;;;;;;29.41;43.53;102019.97;5049633;28;20025;-78
2023/06/23 07:42:47;;;;;;;10.43;9.10;;;;;;;29.88;40.62;102024.88;5040262;28;20030;-78
2023/06/23 07:45:12;;;;;;;8.73;7.82;;;;;;;29.46;41.80;102022.69;5038992;28;20083;-78
2023/06/23 07:47:38;;;;;;;15.00;8.95;;;;;;;28.94;41.16;102029.94;5048622;28;20109;-78
2023/06/23 07:50:04;;;;;;;9.52;8.23;;;;;;;28.25;45.72;102020.56;5046450;28;20416;-78
2023/06/23 07:52:29;;;;;;;9.95;8.05;;;;;;;29.04;41.51;102021.50;5046782;28;20036;-77
2023/06/23 07:54:55;;;;;;;8.90;7.40;;;;;;;29.72;45.07;102016.78;5040812;28;20464;-78
2023/06/23 07:57:21;;;;;;;7.28;6.15;;;;;;;30.53;37.87;102028.88;5047926;28;20048;-77
2023/06/23 07:59:47;;;;;;;8.65;7.80;;;;;;;30.15;40.79;102020.63;5047074;28;20045;-78
2023/06/23 08:02:12;;;;;;;10.52;8.18;;;;;;;29.46;43.51;102014.38;5040591;28;20029;-78
2023/06/23 08:04:38;;;;;;;9.45;7.53;;;;;;;30.25;42.15;102017.66;5045072;28;20037;-78
2023/06/23 08:07:04;;;;;;;8.10;7.30;;;;;;;31.05;39.26;102028.75;5044011;28;20111;-77
2023/06/23 08:09:29;;;;;;;8.70;7.60;;;;;;;31.53;38.12;102035.84;5052835;28;20499;-77
2023/06/23 08:11:54;;;;;;;8.70;6.35;;;;;;;31.69;40.13;102038.28;5051408;28;20028;-77
2023/06/23 08:14:20;;;;;;;8.13;6.32;;;;;;;31.60;35.51;102032.63;5051638;28;20353;-77
2023/06/23 08:16:46;;;;;;;8.80;7.20;;;;;;;30.54;36.79;102030.50;5053220;28;20040;-77
2023/06/23 08:19:11;;;;;;;9.30;7.40;;;;;;;29.37;39.63;102021.69;5045043;28;20032;-78
2023/06/23 08:21:37;;;;;;;8.82;7.05;;;;;;;29.24;43.13;102022.38;5051865;28;20187;-77
2023/06/23 08:24:02;;;;;;;6.68;5.88;;;;;;;29.91;39.86;102030.66;5052486;28;20773;-77
2023/06/23 08:26:28;;;;;;;6.85;6.15;;;;;;;30.36;39.90;102030.22;5050301;28;20043;-77
2023/06/23 08:28:53;;;;;;;6.90;6.20;;;;;;;31.18;38.01;102031.84;5043190;28;20070;-77
2023/06/23 08:31:19;;;;;;;6.88;6.05;;;;;;;30.91;38.14;102031.50;5049219;28;20029;-78
2023/06/23 08:33:44;;;;;;;6.05;5.45;;;;;;;31.15;39.94;102034.13;5051169;28;20497;-77
2023/06/23 08:36:10;;;;;;;7.00;6.30;;;;;;;30.75;36.27;102036.56;5051594;28;20044;-78
2023/06/23 08:38:35;;;;;;;4.95;4.22;;;;;;;31.46;36.37;102043.78;5043776;28;20028;-77
2023/06/23 08:41:00;;;;;;;6.65;5.55;;;;;;;32.70;34.88;102048.41;5050429;28;20495;-77
2023/06/23 08:43:26;;;;;;;7.05;4.97;;;;;;;31.65;34.83;102045.59;5049446;28;20025;-76
2023/06/23 08:45:58;;;;;;;7.18;5.53;;;;;;;30.45;37.59;102044.25;5044093;28;20044;-77
2023/06/23 08:48:27;;;;;;;5.72;5.05;;;;;;;30.87;37.77;102054.69;5051415;28;20067;-78
2023/06/23 08:51:00;;;;;;;9.23;5.40;;;;;;;30.65;37.64;102057.03;5044585;28;20025;-77
2023/06/23 08:53:25;;;;;;;6.07;5.47;;;;;;;29.98;38.82;102060.00;5043513;28;20481;-77
2023/06/23 08:55:51;;;;;;;6.38;4.90;;;;;;;31.26;36.88;102061.75;5050387;28;20139;-77
2023/06/23 08:58:17;;;;;;;8.38;4.70;;;;;;;31.53;36.16;102063.69;5058531;28;20144;-77
2023/06/23 09:00:43;;;;;;;5.88;4.70;;;;;;;32.36;32.77;102070.19;5051337;28;20392;-77
2023/06/23 09:03:08;;;;;;;6.88;4.32;;;;;;;31.80;34.39;102072.31;5044866;28;20021;-76
2023/06/23 09:05:34;;;;;;;4.60;4.20;;;;;;;31.38;34.30;102075.13;5040194;28;20056;-77
2023/06/23 09:07:59;;;;;;;6.15;4.65;;;;;;;32.45;35.39;102079.44;5050601;28;20033;-77
2023/06/23 09:10:25;;;;;;;5.97;4.00;;;;;;;33.23;32.04;102080.16;5051146;28;20094;-77
2023/06/23 09:13:19;;;;;;;4.30;3.90;;;;;;;32.15;33.98;102076.22;5029238;28;20055;-77
2023/06/23 09:15:46;;;;;;;4.20;3.80;;;;;;;32.53;33.13;102079.78;5031748;28;20558;-77
2023/06/23 09:18:13;;;;;;;5.72;4.28;;;;;;;31.85;31.72;102072.22;5051528;28;20029;-77
2023/06/23 09:20:38;;;;;;;7.15;3.83;;;;;;;31.67;34.93;102085.09;5049506;28;20083;-77
2023/06/23 09:23:03;;;;;;;6.38;4.20;;;;;;;30.93;33.53;102084.84;5032478;28;20522;-77
2023/06/23 09:25:38;;;;;;;5.30;4.15;;;;;;;30.72;32.75;102086.34;5033944;28;20356;-77
2023/06/23 09:28:05;;;;;;;3.92;3.53;;;;;;;31.58;33.58;102085.84;5042909;28;20025;-76
2023/06/23 09:30:34;;;;;;;4.80;3.83;;;;;;;31.00;33.50;102087.22;5050070;28;20021;-77
2023/06/23 09:33:00;;;;;;;5.50;3.75;;;;;;;31.21;33.01;102078.53;5051301;28;20098;-78
2023/06/23 09:35:25;;;;;;;3.95;3.33;;;;;;;31.24;33.82;102075.13;5050010;28;20079;-77
2023/06/23 09:37:51;;;;;;;4.55;3.17;;;;;;;32.14;34.43;102087.69;5049762;28;20437;-77
2023/06/23 09:40:26;;;;;;;4.85;3.50;;;;;;;32.39;32.45;102091.03;5052404;28;20036;-77
2023/06/23 09:42:58;;;;;;;5.38;3.83;;;;;;;31.47;31.38;102078.81;5049680;28;20282;-77
2023/06/23 09:45:24;;;;;;;3.70;2.90;;;;;;;32.61;31.18;102099.34;5049648;28;20029;-77
2023/06/23 09:47:49;;;;;;;2.97;2.75;;;;;;;33.88;28.15;102102.84;5047313;28;20021;-77
2023/06/23 09:50:20;;;;;;;3.33;2.90;;;;;;;33.05;28.52;102108.00;5034219;28;20021;-77
2023/06/23 09:52:45;;;;;;;3.83;3.28;;;;;;;32.21;30.54;102102.81;5046053;28;20477;-77
2023/06/23 09:55:11;;;;;;;4.15;3.50;;;;;;;32.15;30.76;102104.06;5051094;28;20043;-78
2023/06/23 09:57:36;;;;;;;5.38;3.30;;;;;;;31.71;31.13;102105.63;5041311;28;20041;-77
2023/06/23 10:00:03;;;;;;;3.28;2.97;;;;;;;32.21;31.07;102107.59;4999188;28;20037;-77
2023/06/23 10:02:29;;;;;;;3.17;2.88;;;;;;;33.72;29.36;102103.31;5050506;28;20025;-77
2023/06/23 10:05:02;;;;;;;2.83;2.63;;;;;;;33.29;28.02;102112.38;5049910;28;20063;-77
2023/06/23 10:07:27;;;;;;;4.38;3.13;;;;;;;33.18;31.79;102111.03;5050265;28;20346;-77
2023/06/23 10:09:57;;;;;;;2.92;2.63;;;;;;;34.85;27.94;102114.78;5051353;28;20171;-77
2023/06/23 10:12:26;;;;;;;3.45;3.10;;;;;;;33.16;27.33;102113.31;5044096;28;20059;-77
2023/06/23 10:14:52;;;;;;;3.35;2.83;;;;;;;33.63;27.14;102113.66;5045227;28;20029;-77
2023/06/23 10:17:17;;;;;;;3.85;3.17;;;;;;;34.22;27.69;102114.38;5038831;28;20120;-77
2023/06/23 10:19:46;;;;;;;3.78;3.47;;;;;;;33.78;26.89;102117.13;5044475;28;20206;-78
2023/06/23 10:22:19;;;;;;;3.10;2.90;;;;;;;33.11;27.45;102111.47;5041643;28;20163;-77
2023/06/23 10:24:49;;;;;;;2.72;2.53;;;;;;;34.09;27.06;102118.97;5051130;28;20025;-77
2023/06/23 10:27:16;;;;;;;4.72;2.47;;;;;;;34.64;25.68;102113.88;5044959;28;20034;-77
2023/06/23 10:29:42;;;;;;;2.40;2.20;;;;;;;35.22;23.41;102100.34;5046762;28;20417;-77
2023/06/23 10:32:08;;;;;;;2.55;2.35;;;;;;;35.83;25.46;102101.19;5015058;28;20167;-77
2023/06/23 10:34:34;;;;;;;3.97;2.30;;;;;;;35.10;26.56;102091.84;5004883;28;20129;-77
2023/06/23 10:37:00;;;;;;;2.65;2.42;;;;;;;35.93;24.62;102106.38;5009567;28;20021;-77
2023/06/23 10:39:26;;;;;;;4.03;2.40;;;;;;;35.91;23.19;102109.53;5050603;28;20036;-77
2023/06/23 10:41:52;;;;;;;3.00;2.67;;;;;;;35.03;25.06;102107.22;5047300;28;20029;-77
2023/06/23 10:44:18;;;;;;;2.80;2.50;;;;;;;34.85;26.82;102103.59;5030638;28;20033;-77
2023/06/23 10:46:43;;;;;;;2.75;2.40;;;;;;;35.76;24.82;102102.53;5043938;28;20110;-77
2023/06/23 10:49:09;;;;;;;4.70;2.70;;;;;;;34.81;26.44;102102.63;5020512;28;20530;-77
2023/06/23 10:51:34;;;;;;;3.38;2.80;;;;;;;35.92;24.66;102107.53;5028860;28;20040;-77
2023/06/23 10:54:05;;;;;;;2.90;2.70;;;;;;;34.44;27.70;102105.00;5031063;28;20028;-77
2023/06/23 10:56:34;;;;;;;2.95;2.65;;;;;;;34.59;27.66;102109.28;5047399;28;20293;-77
2023/06/23 10:58:59;;;;;;;2.80;2.60;;;;;;;35.36;28.39;102114.13;5040982;28;20025;-77
2023/06/23 11:01:26;;;;;;;3.03;2.60;;;;;;;35.29;25.52;102105.44;5045671;28;20090;-77
2023/06/23 11:03:53;;;;;;;3.22;2.80;;;;;;;35.69;25.68;102112.66;5046512;28;20405;-77
2023/06/23 11:06:26;;;;;;;3.40;3.10;;;;;;;33.80;28.41;102110.03;5044092;28;20028;-77
2023/06/23 11:08:52;;;;;;;3.33;2.80;;;;;;;33.37;28.43;102114.38;5041507;28;20037;-77
2023/06/23 11:11:32;;;;;;;3.35;2.85;;;;;;;32.61;29.05;102099.34;5045655;28;20044;-77
2023/06/23 11:13:58;;;;;;;3.58;2.90;;;;;;;32.84;28.34;102101.31;5053396;28;20487;-76
2023/06/23 11:16:31;;;;;;;3.05;2.80;;;;;;;32.91;27.40;102107.28;5006312;28;20029;-77
2023/06/23 11:19:01;;;;;;;3.10;2.88;;;;;;;34.06;26.79;102098.09;5043537;28;20508;-77